Time;durP1;ratioP1;P1;durP2;ratioP2;P2;SDS_P1;SDS_P2;PMS_P1;PMS_P2;Temp;Humidity;BMP_temperature;BMP_pressure;BME280_temperature;BME280_humidity;BME280_pressure;Samples;Min_cycle;Max_cycle;Signal;HPM_P1;HPM_P2
2023/07/29 00:01:35;;;;;;;;;;;;;;;27.90;34.40;99740.84;6155014;23;19916;-64
2023/07/29 00:04:01;;;;;;;;;;;;;;;27.77;34.45;99739.88;6104933;23;19966;-64
2023/07/29 00:06:26;;;;;;;;;;;;;;;27.78;34.14;99740.66;6155151;23;20349;-64
2023/07/29 00:08:51;;;;;;;;;;;;;;;27.77;34.67;99739.06;6156025;23;20219;-64
2023/07/29 00:11:17;;;;;;;;;;;;;;;27.73;34.12;99738.06;6155863;23;19996;-63
2023/07/29 00:13:42;;;;;;;;;;;;;;;27.66;34.36;99741.34;6155695;23;19909;-63
2023/07/29 00:16:07;;;;;;;;;;;;;;;27.64;34.01;99737.28;6155062;23;19909;-63
2023/07/29 00:18:33;;;;;;;;;;;;;;;27.67;34.47;99734.66;6155155;23;19915;-63
2023/07/29 00:20:58;;;;;;;;;;;;;;;27.69;34.30;99737.94;6155047;23;19971;-63
2023/07/29 00:23:23;;;;;;;;;;;;;;;27.71;34.24;99732.91;6155204;23;20004;-63
2023/07/29 00:25:49;;;;;;;;;;;;;;;27.70;34.49;99733.22;6155151;23;19912;-63
2023/07/29 00:28:14;;;;;;;;;;;;;;;27.72;34.02;99729.00;6155445;23;19919;-63
2023/07/29 00:30:39;;;;;;;;;;;;;;;27.76;34.60;99726.38;6157192;23;19947;-64
2023/07/29 00:33:04;;;;;;;;;;;;;;;27.71;34.51;99719.09;6157184;23;19909;-64
2023/07/29 00:35:30;;;;;;;;;;;;;;;27.63;34.22;99727.38;6157338;23;19916;-64
2023/07/29 00:37:55;;;;;;;;;;;;;;;27.63;34.72;99721.88;6156971;23;19935;-65
2023/07/29 00:40:21;;;;;;;;;;;;;;;27.54;35.05;99719.91;6157119;23;19973;-64
2023/07/29 00:42:47;;;;;;;;;;;;;;;27.48;34.92;99724.00;6157311;23;19912;-64
2023/07/29 00:45:12;;;;;;;;;;;;;;;27.37;35.56;99725.44;6157364;23;20304;-64
2023/07/29 00:47:38;;;;;;;;;;;;;;;27.12;36.09;99724.28;6156402;23;20331;-64
2023/07/29 00:50:03;;;;;;;;;;;;;;;27.08;35.50;99726.88;6157158;23;20307;-64
2023/07/29 00:52:29;;;;;;;;;;;;;;;27.16;35.33;99728.03;6157025;23;20319;-64
2023/07/29 00:54:54;;;;;;;;;;;;;;;27.24;35.45;99728.00;6157062;23;19960;-64
2023/07/29 00:57:20;;;;;;;;;;;;;;;27.27;35.30;99726.59;6130932;23;19909;-63
2023/07/29 00:59:45;;;;;;;;;;;;;;;27.21;35.13;99728.66;6157015;23;19909;-63
2023/07/29 01:02:11;;;;;;;;;;;;;;;27.22;35.70;99722.00;6130516;23;20243;-63
2023/07/29 01:04:36;;;;;;;;;;;;;;;27.30;34.55;99717.66;6157004;23;19909;-63
2023/07/29 01:07:01;;;;;;;;;;;;;;;27.38;34.93;99716.84;6156662;23;20222;-63
2023/07/29 01:09:36;;;;;;;;;;;;;;;27.35;35.21;99720.25;6157125;23;20310;-63
2023/07/29 01:12:07;;;;;;;;;;;;;;;27.26;36.23;99713.94;6157058;23;19915;-63
2023/07/29 01:14:43;;;;;;;;;;;;;;;27.22;34.68;99713.72;6157022;23;19916;-64
2023/07/29 01:17:13;;;;;;;;;;;;;;;27.22;35.07;99710.97;6156994;23;19979;-64
2023/07/29 01:19:57;;;;;;;;;;;;;;;27.18;35.60;99711.97;6157185;23;19909;-64
2023/07/29 01:22:23;;;;;;;;;;;;;;;27.20;35.23;99712.44;6156484;23;19913;-64
2023/07/29 01:24:48;;;;;;;;;;;;;;;27.19;35.60;99714.41;6156576;23;19912;-64
2023/07/29 01:27:14;;;;;;;;;;;;;;;27.19;35.43;99708.06;6130579;23;19968;-64
2023/07/29 01:29:40;;;;;;;;;;;;;;;27.19;34.92;99702.53;6156628;23;19909;-64
2023/07/29 01:32:09;;;;;;;;;;;;;;;27.20;35.02;99691.19;6130547;23;19916;-64
2023/07/29 01:34:51;;;;;;;;;;;;;;;27.17;35.07;99697.38;6156523;23;20358;-64
2023/07/29 01:37:22;;;;;;;;;;;;;;;27.10;35.64;99694.28;6130745;23;19915;-64
2023/07/29 01:39:49;;;;;;;;;;;;;;;27.11;35.11;99693.13;6130349;23;19916;-64
2023/07/29 01:42:15;;;;;;;;;;;;;;;27.11;35.31;99687.63;6156582;23;19935;-64
2023/07/29 01:44:42;;;;;;;;;;;;;;;27.11;35.22;99693.13;6156671;23;20318;-64
2023/07/29 01:47:07;;;;;;;;;;;;;;;27.09;35.58;99692.66;6155803;23;19909;-64
2023/07/29 01:49:33;;;;;;;;;;;;;;;27.07;35.55;99692.16;6156549;23;19909;-64
2023/07/29 01:51:58;;;;;;;;;;;;;;;27.09;35.38;99687.13;6156654;23;19909;-64
2023/07/29 01:54:23;;;;;;;;;;;;;;;27.15;35.40;99694.09;6156923;23;19912;-64
2023/07/29 01:56:51;;;;;;;;;;;;;;;27.20;35.16;99682.94;6156640;23;19916;-64
2023/07/29 01:59:16;;;;;;;;;;;;;;;27.19;35.58;99694.28;6156616;23;19908;-64
2023/07/29 02:01:42;;;;;;;;;;;;;;;27.13;35.59;99679.84;6156164;23;19947;-64
2023/07/29 02:04:07;;;;;;;;;;;;;;;27.09;35.53;99681.63;6156239;23;19951;-64
2023/07/29 02:06:33;;;;;;;;;;;;;;;27.18;35.45;99681.63;6156411;23;19908;-64
2023/07/29 02:08:58;;;;;;;;;;;;;;;27.18;35.55;99685.19;6156387;23;20386;-64
2023/07/29 02:11:27;;;;;;;;;;;;;;;27.18;35.33;99676.94;6156536;23;19913;-64
2023/07/29 02:13:53;;;;;;;;;;;;;;;27.14;35.10;99675.16;6156033;23;19959;-64
2023/07/29 02:16:18;;;;;;;;;;;;;;;27.15;35.06;99677.56;6156455;23;20456;-64
2023/07/29 02:18:44;;;;;;;;;;;;;;;27.16;35.34;99681.16;6156085;23;19916;-64
2023/07/29 02:21:09;;;;;;;;;;;;;;;27.13;35.05;99677.09;6155989;23;19920;-64
2023/07/29 02:23:34;;;;;;;;;;;;;;;27.13;35.12;99679.03;6156121;23;19908;-64
2023/07/29 02:25:59;;;;;;;;;;;;;;;27.11;35.17;99684.06;6156015;23;19915;-64
2023/07/29 02:28:25;;;;;;;;;;;;;;;27.09;35.36;99678.88;6156278;23;19908;-64
2023/07/29 02:31:08;;;;;;;;;;;;;;;27.14;35.09;99677.91;6156054;23;19958;-64
2023/07/29 02:33:34;;;;;;;;;;;;;;;27.11;35.11;99679.34;6156133;23;19920;-64
2023/07/29 02:36:00;;;;;;;;;;;;;;;27.09;35.01;99669.78;6155678;23;19908;-63
2023/07/29 02:38:25;;;;;;;;;;;;;;;27.08;34.79;99680.03;6129738;23;19908;-63
2023/07/29 02:40:52;;;;;;;;;;;;;;;27.06;35.07;99682.28;6155758;23;20242;-64
2023/07/29 02:43:17;;;;;;;;;;;;;;;27.03;34.96;99689.25;6155382;23;19908;-63
2023/07/29 02:45:42;;;;;;;;;;;;;;;27.07;35.05;99683.91;6155268;23;19909;-63
2023/07/29 02:48:07;;;;;;;;;;;;;;;27.10;34.78;99672.25;6154483;23;20333;-64
2023/07/29 02:50:34;;;;;;;;;;;;;;;27.06;34.94;99682.28;6155694;23;19908;-64
2023/07/29 02:53:00;;;;;;;;;;;;;;;27.04;34.94;99684.53;6155391;23;20393;-64
2023/07/29 02:55:26;;;;;;;;;;;;;;;26.99;35.25;99682.75;6155656;23;20250;-64
2023/07/29 02:57:51;;;;;;;;;;;;;;;26.98;35.23;99681.13;6155898;23;19909;-64
2023/07/29 03:00:17;;;;;;;;;;;;;;;27.01;35.04;99685.19;6155693;23;20295;-63
2023/07/29 03:02:42;;;;;;;;;;;;;;;27.04;35.19;99676.25;6155682;23;19920;-63
2023/07/29 03:05:08;;;;;;;;;;;;;;;27.01;35.38;99676.94;6155929;23;20307;-64
2023/07/29 03:07:33;;;;;;;;;;;;;;;27.03;35.05;99680.97;6156095;23;19932;-64
2023/07/29 03:09:58;;;;;;;;;;;;;;;27.02;35.07;99673.84;6155491;23;19908;-64
2023/07/29 03:12:23;;;;;;;;;;;;;;;27.07;34.89;99675.63;6155349;23;19920;-63
2023/07/29 03:14:49;;;;;;;;;;;;;;;27.12;34.75;99677.44;6155215;23;19908;-63
2023/07/29 03:17:14;;;;;;;;;;;;;;;27.10;34.93;99683.25;6155615;23;19919;-63
2023/07/29 03:19:39;;;;;;;;;;;;;;;27.08;35.11;99679.19;6155857;23;19931;-63
2023/07/29 03:22:04;;;;;;;;;;;;;;;27.08;34.79;99688.28;6155948;23;19918;-63
2023/07/29 03:24:30;;;;;;;;;;;;;;;27.11;34.84;99686.81;6155451;23;19915;-63
2023/07/29 03:26:55;;;;;;;;;;;;;;;27.15;34.77;99680.31;6155566;23;19908;-63
2023/07/29 03:29:20;;;;;;;;;;;;;;;27.12;34.83;99685.69;6155388;23;19912;-63
2023/07/29 03:31:46;;;;;;;;;;;;;;;27.11;34.48;99676.59;6155338;23;19916;-64
2023/07/29 03:34:12;;;;;;;;;;;;;;;27.10;34.66;99672.25;6155681;23;20331;-64
2023/07/29 03:36:37;;;;;;;;;;;;;;;27.13;34.69;99677.09;6155893;23;19912;-64
2023/07/29 03:39:03;;;;;;;;;;;;;;;27.13;34.56;99671.56;6155654;23;19967;-63
2023/07/29 03:41:28;;;;;;;;;;;;;;;27.17;34.42;99677.25;6155570;23;19936;-64
2023/07/29 03:43:54;;;;;;;;;;;;;;;27.12;34.93;99667.22;6155595;23;19912;-63
2023/07/29 03:46:21;;;;;;;;;;;;;;;27.12;34.77;99675.47;6155175;23;19956;-63
2023/07/29 03:48:46;;;;;;;;;;;;;;;27.16;34.52;99678.41;6155480;23;20298;-65
2023/07/29 03:51:12;;;;;;;;;;;;;;;27.17;34.71;99677.25;6155888;23;19915;-64
2023/07/29 03:53:37;;;;;;;;;;;;;;;27.15;34.96;99669.28;6155622;23;20311;-64
2023/07/29 03:56:02;;;;;;;;;;;;;;;27.10;34.71;99680.50;6129518;23;19933;-64
2023/07/29 03:58:28;;;;;;;;;;;;;;;27.11;34.70;99676.59;6155556;23;20229;-64
2023/07/29 04:00:53;;;;;;;;;;;;;;;27.09;34.99;99672.56;6155683;23;20114;-63
2023/07/29 04:03:18;;;;;;;;;;;;;;;27.18;34.75;99673.38;6156339;23;20200;-64
2023/07/29 04:05:44;;;;;;;;;;;;;;;27.19;34.85;99675.81;6157623;23;19916;-64
2023/07/29 04:08:09;;;;;;;;;;;;;;;27.17;34.85;99671.72;6157338;23;19919;-64
2023/07/29 04:10:35;;;;;;;;;;;;;;;27.16;34.84;99670.94;6157329;23;19908;-64
2023/07/29 04:13:00;;;;;;;;;;;;;;;27.17;34.60;99671.72;6157258;23;20447;-63
2023/07/29 04:15:25;;;;;;;;;;;;;;;27.19;34.75;99670.28;6157178;23;20010;-63
2023/07/29 04:17:51;;;;;;;;;;;;;;;27.22;34.80;99669.63;6157714;23;20322;-63
2023/07/29 04:20:16;;;;;;;;;;;;;;;27.22;34.57;99660.56;6131733;23;19955;-63
2023/07/29 04:22:41;;;;;;;;;;;;;;;27.22;34.74;99666.88;6157429;23;20257;-64
2023/07/29 04:25:07;;;;;;;;;;;;;;;27.23;34.63;99664.94;6157207;23;19982;-64
2023/07/29 04:27:32;;;;;;;;;;;;;;;27.24;34.60;99667.34;6157777;23;19909;-64
2023/07/29 04:29:58;;;;;;;;;;;;;;;27.23;34.51;99662.97;6157230;23;19916;-64
2023/07/29 04:32:23;;;;;;;;;;;;;;;27.23;34.61;99664.94;6157500;23;19931;-64
2023/07/29 04:34:48;;;;;;;;;;;;;;;27.23;34.62;99659.44;6157150;23;19909;-64
2023/07/29 04:37:13;;;;;;;;;;;;;;;27.23;34.72;99664.94;6157578;23;19920;-64
2023/07/29 04:39:39;;;;;;;;;;;;;;;27.23;34.41;99660.22;6157348;23;19908;-64
2023/07/29 04:42:04;;;;;;;;;;;;;;;27.23;34.69;99665.75;6157322;23;19912;-64
2023/07/29 04:44:29;;;;;;;;;;;;;;;27.25;34.43;99665.44;6157100;23;19909;-64
2023/07/29 04:46:55;;;;;;;;;;;;;;;27.29;34.27;99660.09;6156229;23;19909;-64
2023/07/29 04:49:20;;;;;;;;;;;;;;;27.28;34.45;99663.97;6157214;23;19993;-63
2023/07/29 04:51:45;;;;;;;;;;;;;;;27.31;34.44;99664.13;6130989;23;19963;-65
2023/07/29 04:54:11;;;;;;;;;;;;;;;27.36;34.43;99654.91;6157313;23;19909;-64
2023/07/29 04:56:36;;;;;;;;;;;;;;;27.38;34.19;99667.22;6156867;23;19909;-64
2023/07/29 04:59:01;;;;;;;;;;;;;;;27.40;34.02;99666.91;6157375;23;19908;-64
2023/07/29 05:01:26;;;;;;;;;;;;;;;27.41;34.65;99671.25;6157075;23;19920;-64
2023/07/29 05:03:52;;;;;;;;;;;;;;;27.41;34.40;99661.06;6157229;23;19920;-64
2023/07/29 05:06:17;;;;;;;;;;;;;;;27.47;34.65;99664.47;6157064;23;20226;-64
2023/07/29 05:08:42;;;;;;;;;;;;;;;27.56;34.40;99665.25;6157204;23;19971;-64
2023/07/29 05:11:07;;;;;;;;;;;;;;;27.56;34.44;99668.03;6157337;23;20222;-65
2023/07/29 05:13:33;;;;;;;;;;;;;;;27.54;34.33;99667.50;6106437;23;20378;-64
2023/07/29 05:15:58;;;;;;;;;;;;;;;27.59;34.46;99666.53;6156249;23;19908;-64
2023/07/29 05:18:23;;;;;;;;;;;;;;;27.59;34.20;99666.53;6157077;23;19920;-64
2023/07/29 05:20:48;;;;;;;;;;;;;;;27.56;34.51;99659.75;6156741;23;19909;-64
2023/07/29 05:23:14;;;;;;;;;;;;;;;27.59;34.10;99666.53;6156782;23;19928;-64
2023/07/29 05:25:39;;;;;;;;;;;;;;;27.59;33.96;99667.34;6156779;23;19916;-63
2023/07/29 05:28:04;;;;;;;;;;;;;;;27.57;34.10;99671.59;6157119;23;19916;-64
2023/07/29 05:30:31;;;;;;;;;;;;;;;27.56;33.90;99669.94;6156777;23;20219;-64
2023/07/29 05:33:00;;;;;;;;;;;;;;;27.54;34.12;99663.94;6156598;23;19919;-63
2023/07/29 05:35:25;;;;;;;;;;;;;;;27.50;34.14;99674.81;6156774;23;19940;-64
2023/07/29 05:37:50;;;;;;;;;;;;;;;27.48;34.30;99674.34;6156921;23;20218;-64
2023/07/29 05:40:15;;;;;;;;;;;;;;;27.44;34.05;99673.38;6156942;23;19954;-63
2023/07/29 05:42:41;;;;;;;;;;;;;;;27.51;34.18;99676.47;6156717;23;19908;-63
2023/07/29 05:45:07;;;;;;;;;;;;;;;27.51;34.10;99684.72;6156279;23;19912;-63
2023/07/29 05:47:32;;;;;;;;;;;;;;;27.54;34.29;99678.53;6129914;23;19909;-63
2023/07/29 05:49:57;;;;;;;;;;;;;;;27.57;33.90;99677.09;6156257;23;19988;-63
2023/07/29 05:52:24;;;;;;;;;;;;;;;27.65;34.02;99675.44;6156483;23;19967;-63
2023/07/29 05:54:50;;;;;;;;;;;;;;;27.71;33.98;99679.66;6156594;23;19908;-64
2023/07/29 05:57:15;;;;;;;;;;;;;;;27.70;34.12;99680.81;6156805;23;20480;-64
2023/07/29 05:59:40;;;;;;;;;;;;;;;27.75;34.15;99684.19;6156161;23;20218;-64
2023/07/29 06:02:06;;;;;;;;;;;;;;;27.82;33.71;99678.16;6129981;23;19924;-64
2023/07/29 06:04:31;;;;;;;;;;;;;;;27.87;33.80;99678.00;6130095;23;20266;-63
2023/07/29 06:06:56;;;;;;;;;;;;;;;27.92;33.66;99674.28;6130255;23;19987;-64
2023/07/29 06:09:22;;;;;;;;;;;;;;;27.99;33.80;99678.16;6129986;23;19908;-64
2023/07/29 06:11:47;;;;;;;;;;;;;;;28.07;33.70;99673.75;6156054;23;19908;-63
2023/07/29 06:14:13;;;;;;;;;;;;;;;28.13;33.40;99669.66;6156025;23;19909;-63
2023/07/29 06:16:38;;;;;;;;;;;;;;;28.21;33.16;99670.75;6156368;23;19912;-63
2023/07/29 06:19:03;;;;;;;;;;;;;;;28.25;32.86;99670.91;6156422;23;19916;-63
2023/07/29 06:21:29;;;;;;;;;;;;;;;28.38;32.57;99669.88;6156345;23;19952;-63
2023/07/29 06:23:54;;;;;;;;;;;;;;;28.46;32.73;99668.22;6156194;23;19917;-64
2023/07/29 06:26:19;;;;;;;;;;;;;;;28.54;32.32;99668.16;6156262;23;20326;-63
2023/07/29 06:28:44;;;;;;;;;;;;;;;28.57;32.33;99667.50;6155973;23;20033;-63
2023/07/29 06:31:10;;;;;;;;;;;;;;;28.63;31.90;99672.84;6156026;23;19916;-63
2023/07/29 06:33:35;;;;;;;;;;;;;;;28.64;32.65;99674.47;6129802;23;20002;-63
2023/07/29 06:36:00;;;;;;;;;;;;;;;28.63;31.58;99673.66;6155593;23;20274;-63
2023/07/29 06:38:25;;;;;;;;;;;;;;;28.70;31.66;99678.66;6155990;23;19916;-63
2023/07/29 06:40:51;;;;;;;;;;;;;;;28.72;32.01;99677.16;6156153;23;20377;-63
2023/07/29 06:43:16;;;;;;;;;;;;;;;28.73;32.11;99678.81;6155778;23;19958;-64
2023/07/29 06:45:42;;;;;;;;;;;;;;;28.70;31.61;99682.22;6156054;23;19909;-63
2023/07/29 06:48:07;;;;;;;;;;;;;;;28.73;31.49;99686.25;6154991;23;19909;-64
2023/07/29 06:50:32;;;;;;;;;;;;;;;28.73;31.20;99678.81;6155864;23;20226;-63
2023/07/29 06:52:58;;;;;;;;;;;;;;;28.73;31.21;99677.97;6156046;23;19948;-63
2023/07/29 06:55:23;;;;;;;;;;;;;;;28.70;31.39;99676.69;6156206;23;19909;-63
2023/07/29 06:57:48;;;;;;;;;;;;;;;28.76;32.06;99678.13;6129431;23;19916;-64
2023/07/29 07:00:14;;;;;;;;;;;;;;;28.73;31.63;99689.03;6155598;23;19916;-64
2023/07/29 07:02:39;;;;;;;;;;;;;;;28.72;31.68;99679.94;6154740;23;19924;-64
2023/07/29 07:05:04;;;;;;;;;;;;;;;28.73;32.30;99678.81;6154552;23;19909;-65
2023/07/29 07:07:30;;;;;;;;;;;;;;;28.65;31.76;99676.88;6154377;23;19909;-64
2023/07/29 07:09:56;;;;;;;;;;;;;;;28.64;32.09;99683.56;6155348;23;19916;-64
2023/07/29 07:12:21;;;;;;;;;;;;;;;28.59;31.54;99677.44;6129294;23;19909;-65
2023/07/29 07:14:47;;;;;;;;;;;;;;;28.54;31.52;99689.47;6155041;23;19972;-65
2023/07/29 07:17:13;;;;;;;;;;;;;;;28.54;31.75;99683.94;6154873;23;19972;-64
2023/07/29 07:19:39;;;;;;;;;;;;;;;28.58;31.70;99682.13;6154963;23;20238;-64
2023/07/29 07:22:04;;;;;;;;;;;;;;;28.34;31.71;99685.47;6128669;23;19993;-65
2023/07/29 07:24:30;;;;;;;;;;;;;;;28.51;31.47;99679.03;6154466;23;19959;-65
2023/07/29 07:26:55;;;;;;;;;;;;;;;28.60;31.36;99679.84;6154409;23;20291;-65
2023/07/29 07:29:20;;;;;;;;;;;;;;;28.71;30.93;99686.59;6154450;23;19959;-65
2023/07/29 07:31:53;;;;;;;;;;;;;;;28.79;30.96;99679.41;6154192;23;19908;-65
2023/07/29 07:34:18;;;;;;;;;;;;;;;28.84;31.56;99684.72;6154274;23;19984;-65
2023/07/29 07:36:44;;;;;;;;;;;;;;;28.95;31.09;99688.72;6154187;23;20270;-65
2023/07/29 07:39:09;;;;;;;;;;;;;;;28.94;31.38;99687.09;6154433;23;19908;-64
2023/07/29 07:41:34;;;;;;;;;;;;;;;29.08;30.85;99689.59;6154497;23;20295;-64
2023/07/29 07:43:59;;;;;;;;;;;;;;;29.07;31.25;99690.75;6154320;23;19909;-64
2023/07/29 07:46:25;;;;;;;;;;;;;;;29.08;30.90;99688.78;6153886;23;19913;-64
2023/07/29 07:48:50;;;;;;;;;;;;;;;29.10;30.93;99686.50;6154363;23;19909;-64
2023/07/29 07:51:15;;;;;;;;;;;;;;;29.20;30.55;99688.06;6154628;23;19975;-64
2023/07/29 07:53:40;;;;;;;;;;;;;;;29.22;30.09;99683.84;6154307;23;19908;-64
2023/07/29 07:56:06;;;;;;;;;;;;;;;29.20;29.67;99680.59;6154063;23;19991;-65
2023/07/29 07:58:32;;;;;;;;;;;;;;;29.21;30.89;99682.19;6154230;23;19909;-65
2023/07/29 08:01:04;;;;;;;;;;;;;;;29.22;30.31;99674.75;6154234;23;19920;-64
2023/07/29 08:03:29;;;;;;;;;;;;;;;29.19;30.49;99678.16;6077000;23;1822859;-65
2023/07/29 08:05:58;;;;;;;;;;;;;;;29.19;30.06;99678.97;6155731;23;19913;-64
2023/07/29 08:08:23;;;;;;;;;;;;;;;29.22;30.25;99675.53;6155613;23;19975;-64
2023/07/29 08:10:48;;;;;;;;;;;;;;;29.23;30.69;99679.09;6155319;23;19953;-64
2023/07/29 08:13:13;;;;;;;;;;;;;;;29.21;29.84;99675.88;6155409;23;19913;-64
2023/07/29 08:15:40;;;;;;;;;;;;;;;29.07;30.61;99674.16;6129123;23;20295;-64
2023/07/29 08:18:06;;;;;;;;;;;;;;;28.98;30.23;99678.94;6155119;23;19944;-64
2023/07/29 08:20:32;;;;;;;;;;;;;;;28.88;30.38;99679.34;6129203;23;19909;-64
2023/07/29 08:22:57;;;;;;;;;;;;;;;28.64;30.55;99680.81;6154988;23;19940;-64
2023/07/29 08:25:23;;;;;;;;;;;;;;;28.80;31.66;99681.03;6155460;23;19916;-64
2023/07/29 08:27:48;;;;;;;;;;;;;;;28.84;30.71;99672.88;6155677;23;19909;-65
2023/07/29 08:30:14;;;;;;;;;;;;;;;28.74;30.51;99676.84;6155223;23;19975;-65
2023/07/29 08:32:39;;;;;;;;;;;;;;;28.82;30.53;99672.41;6155530;23;19936;-65
2023/07/29 08:35:05;;;;;;;;;;;;;;;28.52;30.91;99675.16;6155381;23;19912;-65
2023/07/29 08:37:31;;;;;;;;;;;;;;;28.55;30.79;99672.56;6129248;23;19909;-65
2023/07/29 08:39:56;;;;;;;;;;;;;;;28.50;31.11;99675.47;6155235;23;19909;-65
2023/07/29 08:42:22;;;;;;;;;;;;;;;28.43;31.45;99675.19;6154974;23;19919;-65
2023/07/29 08:44:49;;;;;;;;;;;;;;;28.55;31.11;99667.03;6155069;23;19915;-65
2023/07/29 08:47:14;;;;;;;;;;;;;;;28.52;31.28;99676.00;6154238;23;19983;-64
2023/07/29 08:49:40;;;;;;;;;;;;;;;28.87;30.95;99672.22;6155802;23;19947;-65
2023/07/29 08:52:06;;;;;;;;;;;;;;;28.98;30.98;99667.88;6156997;23;19909;-65
2023/07/29 08:54:31;;;;;;;;;;;;;;;29.06;30.50;99669.75;6157052;23;19959;-65
2023/07/29 08:56:57;;;;;;;;;;;;;;;29.07;30.64;99670.59;6156994;23;19955;-64
2023/07/29 08:59:23;;;;;;;;;;;;;;;29.18;30.95;99665.47;6156949;23;19915;-65
2023/07/29 09:01:49;;;;;;;;;;;;;;;29.36;30.69;99657.84;6156724;23;19967;-65
2023/07/29 09:04:14;;;;;;;;;;;;;;;29.35;30.49;99662.56;6157015;23;19916;-65
2023/07/29 09:06:41;;;;;;;;;;;;;;;29.23;30.47;99666.06;6157297;23;19913;-65
2023/07/29 09:09:07;;;;;;;;;;;;;;;29.29;30.55;99658.38;6157354;23;19987;-65
2023/07/29 09:11:33;;;;;;;;;;;;;;;29.33;30.23;99657.38;6157204;23;19908;-65
2023/07/29 09:13:58;;;;;;;;;;;;;;;29.41;30.79;99657.63;6156696;23;19959;-65
2023/07/29 09:16:24;;;;;;;;;;;;;;;29.48;30.58;99657.91;6156706;23;19919;-65
2023/07/29 09:18:50;;;;;;;;;;;;;;;29.60;30.57;99654.34;6156940;23;19947;-65
2023/07/29 09:21:26;;;;;;;;;;;;;;;29.72;30.10;99662.69;6156681;23;19921;-65
2023/07/29 09:23:52;;;;;;;;;;;;;;;29.69;30.11;99655.06;6156925;23;19909;-64
2023/07/29 09:26:27;;;;;;;;;;;;;;;29.80;30.38;99656.28;6157126;23;19909;-64
2023/07/29 09:28:54;;;;;;;;;;;;;;;29.78;29.92;99655.81;6157113;23;19955;-64
2023/07/29 09:31:20;;;;;;;;;;;;;;;29.69;30.04;99649.53;6157260;23;19908;-64
2023/07/29 09:33:45;;;;;;;;;;;;;;;29.87;30.42;99650.97;6156976;23;19913;-64
2023/07/29 09:36:11;;;;;;;;;;;;;;;29.91;30.56;99651.91;6156617;23;20377;-64
2023/07/29 09:38:37;;;;;;;;;;;;;;;30.04;30.23;99654.69;6156765;23;19909;-64
2023/07/29 09:41:02;;;;;;;;;;;;;;;30.17;30.20;99652.75;6156931;23;20440;-64
2023/07/29 09:43:31;;;;;;;;;;;;;;;30.15;29.63;99663.38;6156428;23;20203;-64
2023/07/29 09:46:03;;;;;;;;;;;;;;;30.26;29.88;99654.25;6156425;23;20345;-64
2023/07/29 09:48:32;;;;;;;;;;;;;;;30.38;29.68;99661.75;6129471;23;19908;-64
2023/07/29 09:50:57;;;;;;;;;;;;;;;30.29;29.23;99655.50;6156559;23;19909;-64
2023/07/29 09:53:24;;;;;;;;;;;;;;;30.34;30.04;99655.31;6130864;23;20345;-64
2023/07/29 09:55:50;;;;;;;;;;;;;;;30.23;29.65;99649.38;6156465;23;19909;-64
2023/07/29 09:58:19;;;;;;;;;;;;;;;30.40;30.06;99653.91;6129835;23;19916;-64
2023/07/29 10:00:45;;;;;;;;;;;;;;;30.46;29.56;99654.47;6156152;23;19931;-64
2023/07/29 10:03:10;;;;;;;;;;;;;;;30.39;29.61;99649.53;6156055;23;20303;-64
2023/07/29 10:05:36;;;;;;;;;;;;;;;30.41;29.48;99650.00;6156318;23;19915;-65
2023/07/29 10:08:01;;;;;;;;;;;;;;;30.37;29.89;99642.72;6155915;23;19909;-65
2023/07/29 10:10:27;;;;;;;;;;;;;;;30.28;29.85;99640.84;6156034;23;19962;-66
2023/07/29 10:12:54;;;;;;;;;;;;;;;30.27;30.06;99635.66;6156303;23;19916;-64
2023/07/29 10:15:20;;;;;;;;;;;;;;;30.36;30.04;99638.34;6156184;23;20325;-66
2023/07/29 10:17:46;;;;;;;;;;;;;;;30.42;30.25;99637.78;6155986;23;19912;-68
2023/07/29 10:20:11;;;;;;;;;;;;;;;30.38;29.82;99634.06;6155885;23;19988;-66
2023/07/29 10:22:37;;;;;;;;;;;;;;;30.49;29.44;99634.41;6155600;23;19912;-67
2023/07/29 10:25:05;;;;;;;;;;;;;;;30.60;29.54;99621.69;6156230;23;20202;-69
2023/07/29 10:27:35;;;;;;;;;;;;;;;30.78;29.70;99627.78;6155669;23;20393;-69
2023/07/29 10:30:00;;;;;;;;;;;;;;;30.89;28.98;99622.53;6155592;23;19916;-69
2023/07/29 10:32:28;;;;;;;;;;;;;;;31.11;29.14;99632.31;6156170;23;19932;-69
2023/07/29 10:34:54;;;;;;;;;;;;;;;31.20;29.27;99629.38;6155995;23;20507;-66
2023/07/29 10:37:20;;;;;;;;;;;;;;;30.97;28.94;99624.38;6156060;23;19916;-66
2023/07/29 10:39:52;;;;;;;;;;;;;;;31.09;29.06;99629.06;6155460;23;19915;-65
2023/07/29 10:42:17;;;;;;;;;;;;;;;31.39;29.09;99609.28;6155810;23;19940;-69
2023/07/29 10:44:46;;;;;;;;;;;;;;;31.58;27.06;99625.31;6156207;23;19908;-66
2023/07/29 10:47:15;;;;;;;;;;;;;;;31.73;28.09;99620.94;6155409;23;19915;-65
2023/07/29 10:49:45;;;;;;;;;;;;;;;31.83;26.66;99618.44;6155899;23;20357;-65
2023/07/29 10:52:14;;;;;;;;;;;;;;;32.07;28.60;99618.63;6155346;23;20372;-65
2023/07/29 10:54:47;;;;;;;;;;;;;;;32.18;26.02;99616.91;6105208;23;19916;-65
2023/07/29 10:57:13;;;;;;;;;;;;;;;32.34;27.20;99616.91;6155653;23;19909;-65
2023/07/29 10:59:39;;;;;;;;;;;;;;;32.46;26.68;99625.09;6156041;23;19963;-65
2023/07/29 11:02:12;;;;;;;;;;;;;;;32.71;27.18;99613.78;6155259;23;20248;-65
2023/07/29 11:04:46;;;;;;;;;;;;;;;32.75;26.65;99606.31;6155448;23;19913;-65
2023/07/29 11:07:12;;;;;;;;;;;;;;;32.87;26.63;99605.34;6129442;23;20275;-66
2023/07/29 11:09:49;;;;;;;;;;;;;;;33.07;25.93;99611.72;6155685;23;19920;-66
2023/07/29 11:12:33;;;;;;;;;;;;;;;33.25;26.09;99610.13;6155401;23;20039;-67
2023/07/29 11:15:03;;;;;;;;;;;;;;;33.41;25.68;99606.44;6155626;23;19908;-66
2023/07/29 11:17:30;;;;;;;;;;;;;;;33.64;24.60;99598.94;6155472;23;19909;-66
2023/07/29 11:19:58;;;;;;;;;;;;;;;33.94;24.88;99599.03;6155179;23;19980;-66
2023/07/29 11:22:24;;;;;;;;;;;;;;;33.97;25.36;99600.28;6155477;23;19917;-66
2023/07/29 11:24:49;;;;;;;;;;;;;;;34.24;24.79;99598.34;6155364;23;19959;-66
2023/07/29 11:27:14;;;;;;;;;;;;;;;34.16;26.72;99604.16;6128883;23;20358;-66
2023/07/29 11:29:39;;;;;;;;;;;;;;;34.25;24.51;99605.53;6155017;23;19909;-66
2023/07/29 11:32:05;;;;;;;;;;;;;;;34.38;24.01;99600.56;6155465;23;19909;-66
2023/07/29 11:34:31;;;;;;;;;;;;;;;34.38;23.69;99608.91;6155385;23;19983;-66
2023/07/29 11:36:57;;;;;;;;;;;;;;;34.44;23.51;99596.25;6154994;23;19908;-67
2023/07/29 11:39:22;;;;;;;;;;;;;;;34.67;23.50;99598.94;6155111;23;19915;-66
2023/07/29 11:41:47;;;;;;;;;;;;;;;34.81;23.71;99600.34;6154864;23;19995;-66
2023/07/29 11:44:16;;;;;;;;;;;;;;;35.14;23.29;99593.97;6154946;23;20008;-66
2023/07/29 11:46:42;;;;;;;;;;;;;;;35.28;21.30;99596.94;6154059;23;19940;-67
2023/07/29 11:49:08;;;;;;;;;;;;;;;35.31;22.96;99594.56;6155241;23;19908;-66
2023/07/29 11:51:33;;;;;;;;;;;;;;;35.45;22.07;99605.88;6155520;23;19912;-64
2023/07/29 11:53:59;;;;;;;;;;;;;;;35.53;21.69;99592.78;6155124;23;19971;-66
2023/07/29 11:56:25;;;;;;;;;;;;;;;35.67;21.94;99593.72;6129141;23;19991;-66
2023/07/29 11:58:50;;;;;;;;;;;;;;;36.02;23.06;99586.06;6155252;23;19955;-64
2023/07/29 12:01:15;;;;;;;;;;;;;;;36.14;21.29;99590.53;6155420;23;19920;-66
2023/07/29 12:03:41;;;;;;;;;;;;;;;36.35;21.37;99595.47;6128942;23;19917;-65
2023/07/29 12:06:06;;;;;;;;;;;;;;;36.54;21.80;99584.00;6155257;23;19931;-64
2023/07/29 12:08:32;;;;;;;;;;;;;;;36.68;19.78;99594.47;6141871;23;19916;-63
2023/07/29 12:10:57;;;;;;;;;;;;;;;36.52;20.08;99589.19;6151698;23;19909;-64
2023/07/29 12:13:25;;;;;;;;;;;;;;;36.57;21.04;99588.00;6154084;23;19908;-64
2023/07/29 12:15:51;;;;;;;;;;;;;;;36.69;20.38;99586.91;6154078;23;19912;-67
2023/07/29 12:18:16;;;;;;;;;;;;;;;36.88;20.59;99591.38;6152522;23;19959;-65
2023/07/29 12:20:41;;;;;;;;;;;;;;;37.09;19.56;99587.84;6154158;23;19936;-66
2023/07/29 12:23:07;;;;;;;;;;;;;;;36.94;19.55;99598.19;6128221;23;19913;-66
2023/07/29 12:25:33;;;;;;;;;;;;;;;37.06;19.80;99603.44;6155264;23;20290;-66
2023/07/29 12:28:07;;;;;;;;;;;;;;;37.15;19.39;99595.50;6157170;23;19940;-65
2023/07/29 12:30:33;;;;;;;;;;;;;;;37.04;18.27;99591.84;6133962;23;19964;-67
2023/07/29 12:32:58;;;;;;;;;;;;;;;37.07;18.68;99596.63;6157191;23;19967;-61
2023/07/29 12:35:23;;;;;;;;;;;;;;;37.10;17.04;99597.84;6156396;23;19908;-67
2023/07/29 12:37:58;;;;;;;;;;;;;;;37.27;19.10;99585.13;6154756;23;19908;-59
2023/07/29 12:40:24;;;;;;;;;;;;;;;37.56;18.73;99586.75;6156674;23;19996;-56
2023/07/29 12:42:51;;;;;;;;;;;;;;;37.82;19.15;99570.78;6154857;23;19968;-66